createdAt,value
2023-01-26T00:00:50.697Z,13.50
2023-01-26T00:03:39.323Z,14.05
2023-01-26T00:06:27.719Z,13.63
2023-01-26T00:09:17.219Z,15.00
2023-01-26T00:12:05.923Z,14.68
2023-01-26T00:14:54.209Z,13.80
2023-01-26T00:17:42.359Z,13.70
2023-01-26T00:20:31.315Z,13.30
2023-01-26T00:23:19.468Z,13.45
2023-01-26T00:26:10.075Z,14.23
2023-01-26T00:28:58.227Z,13.68
2023-01-26T00:31:46.438Z,13.15
2023-01-26T00:34:34.676Z,12.68
2023-01-26T00:37:22.913Z,15.40
2023-01-26T00:40:12.524Z,13.93
2023-01-26T00:43:02.165Z,14.07
2023-01-26T00:45:50.332Z,14.43
2023-01-26T00:48:38.476Z,14.07
2023-01-26T00:51:26.637Z,13.45
2023-01-26T00:54:14.965Z,11.93
2023-01-26T00:57:03.124Z,10.50
2023-01-26T00:59:52.655Z,11.43
2023-01-26T01:02:40.814Z,11.70
2023-01-26T01:05:30.976Z,9.73
2023-01-26T01:08:19.100Z,10.50
2023-01-26T01:11:09.428Z,10.25
2023-01-26T01:13:57.579Z,10.13
2023-01-26T01:16:47.173Z,9.45
2023-01-26T01:19:35.303Z,9.30
2023-01-26T01:22:23.482Z,9.77
2023-01-26T01:25:11.656Z,9.40
2023-01-26T01:27:59.829Z,9.23
2023-01-26T01:30:48.086Z,9.15
2023-01-26T01:33:37.621Z,9.32
2023-01-26T01:36:26.345Z,9.35
2023-01-26T01:39:14.510Z,8.88
2023-01-26T01:42:02.691Z,8.70
2023-01-26T01:45:30.799Z,9.82
2023-01-26T01:48:23.976Z,8.48
2023-01-26T01:51:19.066Z,8.70
2023-01-26T01:54:11.682Z,7.95
2023-01-26T01:57:03.654Z,8.43
2023-01-26T01:59:56.980Z,7.55
2023-01-26T02:03:06.351Z,8.32
2023-01-26T02:05:58.370Z,7.70
2023-01-26T02:08:51.593Z,7.82
2023-01-26T02:11:44.885Z,7.60
2023-01-26T02:14:34.581Z,8.45
2023-01-26T02:17:22.770Z,8.25
2023-01-26T02:20:18.925Z,8.68
2023-01-26T02:23:16.996Z,7.63
2023-01-26T02:26:09.626Z,9.05
2023-01-26T02:28:58.171Z,10.10
2023-01-26T02:31:46.880Z,9.75
2023-01-26T02:34:35.302Z,10.20
2023-01-26T02:37:23.463Z,9.73
2023-01-26T02:40:19.541Z,9.13
2023-01-26T02:43:09.123Z,7.40
2023-01-26T02:45:57.283Z,7.60
2023-01-26T02:49:02.910Z,6.95
2023-01-26T02:51:51.048Z,7.97
2023-01-26T02:54:56.875Z,7.90
2023-01-26T02:57:46.702Z,7.40
2023-01-26T03:00:38.033Z,7.20
2023-01-26T03:03:41.708Z,6.53
2023-01-26T03:06:30.084Z,7.22
2023-01-26T03:09:18.244Z,7.95
2023-01-26T03:12:06.814Z,7.65
2023-01-26T03:15:09.015Z,7.35
2023-01-26T03:18:21.656Z,8.15
2023-01-26T03:21:31.251Z,9.23
2023-01-26T03:24:37.017Z,8.82
2023-01-26T03:27:28.193Z,9.23
2023-01-26T03:33:06.757Z,8.20
2023-01-26T03:35:55.814Z,8.57
2023-01-26T03:38:43.981Z,8.80
2023-01-26T03:41:49.494Z,9.43
2023-01-26T03:44:55.117Z,8.70
2023-01-26T03:48:01.008Z,8.88
2023-01-26T03:51:08.329Z,8.63
2023-01-26T03:54:14.279Z,8.15
2023-01-26T03:57:02.388Z,7.85
2023-01-26T03:59:50.552Z,7.25
2023-01-26T04:02:56.337Z,8.27
2023-01-26T04:06:15.510Z,8.85
2023-01-26T04:09:06.221Z,8.85
2023-01-26T04:11:54.936Z,8.38
2023-01-26T04:15:00.575Z,7.65
2023-01-26T04:18:06.321Z,8.52
2023-01-26T04:21:12.123Z,7.40
2023-01-26T04:24:01.461Z,8.00
2023-01-26T04:26:51.208Z,9.05
2023-01-26T04:29:39.393Z,8.55
2023-01-26T04:32:27.669Z,9.63
2023-01-26T04:35:15.998Z,8.95
2023-01-26T04:38:04.127Z,8.75
2023-01-26T04:40:54.633Z,9.35
2023-01-26T04:43:44.268Z,8.32
2023-01-26T04:46:33.320Z,10.95
2023-01-26T04:49:21.616Z,11.82
2023-01-26T04:52:09.829Z,11.77
2023-01-26T04:54:57.997Z,11.15
2023-01-26T04:57:46.167Z,11.15
2023-01-26T05:00:35.647Z,10.65
2023-01-26T05:03:24.106Z,10.82
2023-01-26T05:06:12.382Z,11.95
2023-01-26T05:09:00.604Z,11.38
2023-01-26T05:11:48.774Z,11.20
2023-01-26T05:14:36.936Z,9.52
2023-01-26T05:17:26.825Z,11.23
2023-01-26T05:20:15.203Z,10.73
2023-01-26T05:23:03.415Z,10.63
2023-01-26T05:25:51.739Z,11.02
2023-01-26T05:28:39.903Z,9.70
2023-01-26T05:31:28.112Z,10.65
2023-01-26T05:34:17.645Z,12.52
2023-01-26T05:37:06.067Z,12.18
2023-01-26T05:39:54.229Z,10.10
2023-01-26T05:42:43.927Z,11.18
2023-01-26T05:45:32.185Z,12.45
2023-01-26T05:48:20.366Z,14.43
2023-01-26T05:51:09.883Z,13.93
2023-01-26T05:53:58.051Z,15.13
2023-01-26T05:56:46.234Z,14.00
2023-01-26T05:59:34.737Z,14.75
2023-01-26T06:02:23.077Z,16.98
2023-01-26T06:05:11.756Z,15.00
2023-01-26T06:08:01.220Z,15.70
2023-01-26T06:10:49.397Z,15.85
2023-01-26T06:13:37.560Z,16.98
2023-01-26T06:16:25.747Z,14.70
2023-01-26T06:19:14.147Z,14.60
2023-01-26T06:22:02.351Z,14.85
2023-01-26T06:24:51.847Z,15.85
2023-01-26T06:27:42.265Z,17.23
2023-01-26T06:30:30.853Z,18.70
2023-01-26T06:33:19.128Z,18.58
2023-01-26T06:36:09.976Z,17.90
2023-01-26T06:39:00.614Z,18.58
2023-01-26T06:41:50.441Z,20.30
2023-01-26T06:44:38.683Z,18.10
2023-01-26T06:47:26.996Z,15.77
2023-01-26T06:50:16.413Z,16.60
2023-01-26T06:53:22.725Z,15.85
2023-01-26T06:56:10.917Z,16.58
2023-01-26T06:59:00.468Z,17.65
2023-01-26T07:01:49.909Z,16.70
2023-01-26T07:04:38.083Z,15.63
2023-01-26T07:07:26.221Z,17.85
2023-01-26T07:10:14.413Z,16.80
2023-01-26T07:13:04.075Z,16.60
2023-01-26T07:15:53.619Z,17.85
2023-01-26T07:18:42.266Z,17.92
2023-01-26T07:21:30.726Z,17.63
2023-01-26T07:24:21.928Z,17.08
2023-01-26T07:29:58.321Z,15.68
2023-01-26T07:32:47.851Z,16.70
2023-01-26T07:35:36.048Z,18.13
2023-01-26T07:38:24.633Z,18.65
2023-01-26T07:41:13.857Z,19.88
2023-01-26T07:44:02.155Z,17.92
2023-01-26T07:46:50.446Z,18.38
2023-01-26T07:49:40.021Z,17.40
2023-01-26T07:52:28.214Z,17.25
2023-01-26T07:55:16.624Z,29.00
2023-01-26T07:58:04.760Z,40.70
2023-01-26T08:00:52.953Z,31.92
2023-01-26T08:03:42.024Z,25.55
2023-01-26T08:06:31.543Z,36.33
2023-01-26T08:09:20.684Z,19.75
2023-01-26T08:12:09.128Z,22.10
2023-01-26T08:14:57.304Z,22.02
2023-01-26T08:17:45.527Z,19.85
2023-01-26T08:20:33.713Z,20.33
2023-01-26T08:23:23.372Z,19.23
2023-01-26T08:26:14.076Z,19.60
2023-01-26T08:29:02.273Z,14.45
2023-01-26T08:31:50.533Z,21.92
2023-01-26T08:34:38.760Z,16.60
2023-01-26T08:37:26.978Z,13.35
2023-01-26T08:40:17.160Z,12.68
2023-01-26T08:43:05.522Z,14.20
2023-01-26T08:45:53.875Z,11.63
2023-01-26T08:48:42.196Z,13.02
2023-01-26T08:51:30.403Z,12.27
2023-01-26T08:54:18.776Z,12.82
2023-01-26T08:57:08.548Z,14.48
2023-01-26T08:59:56.754Z,14.38
2023-01-26T09:02:45.017Z,14.55
2023-01-26T09:05:35.209Z,14.85
2023-01-26T09:08:23.470Z,15.65
2023-01-26T09:11:12.364Z,16.05
2023-01-26T09:14:01.828Z,18.08
2023-01-26T09:16:50.091Z,13.93
2023-01-26T09:19:38.954Z,14.80
2023-01-26T09:22:27.178Z,14.43
2023-01-26T09:25:15.839Z,15.30
2023-01-26T09:28:05.609Z,13.82
2023-01-26T09:30:55.359Z,13.60
2023-01-26T09:33:44.992Z,9.68
2023-01-26T09:36:33.669Z,10.82
2023-01-26T09:39:21.919Z,11.43
2023-01-26T09:42:31.303Z,10.80
2023-01-26T09:45:30.021Z,8.75
2023-01-26T09:48:28.488Z,11.07
2023-01-26T09:51:23.238Z,9.75
2023-01-26T09:54:21.461Z,10.18
2023-01-26T09:57:15.249Z,8.95
2023-01-26T10:00:09.212Z,8.10
2023-01-26T10:03:12.846Z,8.18
2023-01-26T10:06:08.478Z,8.07
2023-01-26T10:08:58.555Z,8.23
2023-01-26T10:11:49.686Z,8.98
2023-01-26T10:14:40.907Z,8.75
2023-01-26T10:20:28.839Z,7.40
2023-01-26T10:23:23.275Z,8.95
2023-01-26T10:26:14.867Z,9.30
2023-01-26T10:29:03.174Z,8.93
2023-01-26T10:31:51.433Z,8.85
2023-01-26T10:34:41.115Z,9.25
2023-01-26T10:37:30.797Z,9.10
2023-01-26T10:40:21.203Z,8.65
2023-01-26T10:43:19.387Z,7.15
2023-01-26T10:46:07.549Z,10.10
2023-01-26T10:48:57.072Z,10.70
2023-01-26T10:51:47.453Z,10.02
2023-01-26T10:54:38.154Z,9.13
2023-01-26T10:57:30.465Z,7.85
2023-01-26T11:00:25.863Z,10.00
2023-01-26T11:03:19.754Z,9.07
2023-01-26T11:06:14.511Z,9.32
2023-01-26T11:09:18.354Z,8.35
2023-01-26T11:12:07.243Z,9.35
2023-01-26T11:15:04.092Z,8.85
2023-01-26T11:18:00.903Z,9.75
2023-01-26T11:20:54.983Z,10.05
2023-01-26T11:24:01.852Z,8.68
2023-01-26T11:27:07.985Z,10.68
2023-01-26T11:30:24.597Z,9.75
2023-01-26T11:33:21.683Z,9.27
2023-01-26T11:36:21.864Z,9.57
2023-01-26T11:39:17.910Z,9.93
2023-01-26T11:42:21.043Z,10.63
2023-01-26T11:45:31.446Z,8.88
2023-01-26T11:48:25.117Z,10.52
2023-01-26T11:51:21.592Z,9.88
2023-01-26T11:54:29.760Z,9.82
2023-01-26T11:57:28.631Z,10.23
2023-01-26T12:00:30.131Z,10.50
2023-01-26T12:03:26.237Z,9.73
2023-01-26T12:06:19.209Z,10.85
2023-01-26T12:09:18.909Z,10.23
2023-01-26T12:12:11.576Z,11.32
2023-01-26T12:15:06.089Z,11.02
2023-01-26T12:18:00.672Z,10.43
2023-01-26T12:20:55.089Z,8.95
2023-01-26T12:23:49.666Z,10.50
2023-01-26T12:26:46.542Z,10.60
2023-01-26T12:29:44.852Z,11.60
2023-01-26T12:32:34.726Z,10.07
2023-01-26T12:35:38.726Z,10.20
2023-01-26T12:38:43.877Z,10.23
2023-01-26T12:41:40.245Z,9.75
2023-01-26T12:44:37.236Z,11.63
2023-01-26T12:47:33.309Z,9.00
2023-01-26T12:50:27.709Z,10.05
2023-01-26T12:53:19.461Z,9.73
2023-01-26T12:56:14.674Z,10.13
2023-01-26T12:59:14.842Z,9.98
2023-01-26T13:02:27.480Z,10.52
2023-01-26T13:05:29.518Z,8.90
2023-01-26T13:08:41.341Z,10.07
2023-01-26T13:11:50.842Z,9.75
2023-01-26T13:14:59.937Z,10.82
2023-01-26T13:18:01.817Z,11.38
2023-01-26T13:20:50.950Z,9.40
2023-01-26T13:23:44.686Z,10.98
2023-01-26T13:26:52.548Z,11.60
2023-01-26T13:29:55.413Z,13.02
2023-01-26T13:32:54.341Z,10.85
2023-01-26T13:35:43.406Z,10.68
2023-01-26T13:38:36.367Z,12.02
2023-01-26T13:41:24.566Z,11.10
2023-01-26T13:44:19.429Z,11.15
2023-01-26T13:47:13.125Z,10.73
2023-01-26T13:50:01.314Z,10.70
2023-01-26T13:52:49.530Z,12.35
2023-01-26T13:55:42.245Z,11.60
2023-01-26T13:58:30.521Z,10.48
2023-01-26T14:01:20.652Z,12.40
2023-01-26T14:04:13.836Z,11.32
2023-01-26T14:07:05.617Z,10.70
2023-01-26T14:09:55.896Z,10.68
2023-01-26T14:12:46.823Z,12.20
2023-01-26T14:15:36.105Z,11.82
2023-01-26T14:18:26.408Z,13.25
2023-01-26T14:21:22.583Z,10.27
2023-01-26T14:24:11.346Z,12.00
2023-01-26T14:26:59.803Z,13.05
2023-01-26T14:29:49.004Z,12.82
2023-01-26T14:32:37.324Z,12.02
2023-01-26T14:35:28.266Z,13.45
2023-01-26T14:38:19.918Z,11.70
2023-01-26T14:41:13.872Z,12.15
2023-01-26T14:44:04.983Z,11.93
2023-01-26T14:46:59.219Z,12.02
2023-01-26T14:49:52.977Z,12.40
2023-01-26T14:52:46.188Z,14.07
2023-01-26T14:55:37.153Z,14.15
2023-01-26T14:58:29.136Z,13.98
2023-01-26T15:01:22.822Z,14.07
2023-01-26T15:04:23.798Z,16.73
2023-01-26T15:07:37.027Z,16.75
2023-01-26T15:10:34.997Z,17.08
2023-01-26T15:13:24.941Z,17.88
2023-01-26T15:16:18.267Z,18.77
2023-01-26T15:19:08.031Z,19.45
2023-01-26T15:21:56.311Z,19.85
2023-01-26T15:24:46.142Z,20.90
2023-01-26T15:27:37.179Z,21.70
2023-01-26T15:30:28.078Z,20.23
2023-01-26T15:33:58.683Z,24.60
2023-01-26T15:36:51.643Z,21.33
2023-01-26T15:39:39.958Z,21.13
2023-01-26T15:42:30.971Z,21.63
2023-01-26T15:45:26.313Z,23.08
2023-01-26T15:48:14.483Z,22.85
2023-01-26T15:51:02.716Z,22.25
2023-01-26T15:53:50.919Z,23.75
2023-01-26T15:56:39.310Z,21.65
2023-01-26T15:59:27.505Z,20.42
2023-01-26T16:02:18.623Z,22.75
2023-01-26T16:05:07.443Z,23.42
2023-01-26T16:07:55.611Z,23.17
2023-01-26T16:10:44.510Z,22.05
2023-01-26T16:13:34.142Z,20.50
2023-01-26T16:16:27.585Z,20.80
2023-01-26T16:19:34.453Z,19.85
2023-01-26T16:22:23.080Z,18.02
2023-01-26T16:25:22.367Z,19.35
2023-01-26T16:28:10.649Z,18.55
2023-01-26T16:31:01.444Z,18.20
2023-01-26T16:33:51.490Z,21.40
2023-01-26T16:36:41.204Z,18.73
2023-01-26T16:39:36.578Z,21.17
2023-01-26T16:42:24.759Z,19.92
2023-01-26T16:45:16.932Z,21.25
2023-01-26T16:48:13.268Z,19.48
2023-01-26T16:51:03.108Z,20.10
2023-01-26T16:53:53.435Z,20.77
2023-01-26T16:56:42.336Z,19.58
2023-01-26T16:59:30.556Z,18.42
2023-01-26T17:02:24.974Z,20.08
2023-01-26T17:05:16.121Z,19.02
2023-01-26T17:08:04.377Z,21.13
2023-01-26T17:11:01.965Z,21.02
2023-01-26T17:13:51.667Z,19.65
2023-01-26T17:16:40.217Z,20.65
2023-01-26T17:19:28.413Z,19.40
2023-01-26T17:22:16.555Z,19.25
2023-01-26T17:25:05.105Z,16.17
2023-01-26T17:27:54.597Z,15.68
2023-01-26T17:30:42.841Z,15.23
2023-01-26T17:33:31.074Z,15.32
2023-01-26T17:36:20.066Z,15.65
2023-01-26T17:39:08.208Z,14.85
2023-01-26T17:41:56.488Z,15.93
2023-01-26T17:44:46.014Z,15.05
2023-01-26T17:47:34.667Z,15.07
2023-01-26T17:50:22.857Z,17.75
2023-01-26T17:53:11.014Z,17.92
2023-01-26T17:55:59.203Z,16.00
2023-01-26T17:58:48.948Z,16.30
2023-01-26T18:01:38.531Z,15.45
2023-01-26T18:04:26.773Z,15.35
2023-01-26T18:07:14.903Z,17.38
2023-01-26T18:10:03.130Z,15.00
2023-01-26T18:12:51.785Z,16.13
2023-01-26T18:15:40.351Z,16.50
2023-01-26T18:18:31.139Z,15.43
2023-01-26T18:21:22.558Z,17.15
2023-01-26T18:24:11.513Z,14.45
2023-01-26T18:26:59.695Z,13.85
2023-01-26T18:29:48.311Z,14.63
2023-01-26T18:32:37.039Z,14.82
2023-01-26T18:35:26.801Z,14.25
2023-01-26T18:38:14.977Z,14.63
2023-01-26T18:41:03.251Z,15.20
2023-01-26T18:43:52.604Z,14.43
2023-01-26T18:46:40.811Z,15.90
2023-01-26T18:49:28.994Z,16.33
2023-01-26T18:52:18.623Z,14.48
2023-01-26T18:55:07.853Z,16.00
2023-01-26T18:57:56.179Z,15.77
2023-01-26T19:00:44.829Z,15.98
2023-01-26T19:03:33.528Z,17.30
2023-01-26T19:06:21.931Z,15.95
2023-01-26T19:09:11.785Z,16.52
2023-01-26T19:12:02.038Z,17.75
2023-01-26T19:14:50.235Z,16.70
2023-01-26T19:17:38.372Z,16.92
2023-01-26T19:20:26.690Z,17.63
2023-01-26T19:23:15.337Z,16.95
2023-01-26T19:26:10.748Z,17.20
2023-01-26T19:28:59.396Z,16.40
2023-01-26T19:31:47.742Z,16.98
2023-01-26T19:34:36.075Z,16.00
2023-01-26T19:37:24.345Z,16.02
2023-01-26T19:40:13.661Z,16.98
2023-01-26T19:43:03.192Z,16.58
2023-01-26T19:45:53.125Z,16.33
2023-01-26T19:48:41.540Z,14.55
2023-01-26T19:51:30.418Z,14.85
2023-01-26T19:54:18.600Z,13.77
2023-01-26T19:57:06.798Z,16.08
2023-01-26T19:59:56.302Z,22.90
2023-01-26T20:02:44.597Z,22.13
2023-01-26T20:05:36.290Z,18.27
2023-01-26T20:08:24.870Z,17.95
2023-01-26T20:11:13.488Z,17.23
2023-01-26T20:14:03.634Z,15.77
2023-01-26T20:16:53.152Z,16.45
2023-01-26T20:19:41.346Z,13.60
2023-01-26T20:22:33.560Z,14.25
2023-01-26T20:25:22.263Z,15.65
2023-01-26T20:28:10.499Z,14.45
2023-01-26T20:31:05.239Z,13.55
2023-01-26T20:33:55.423Z,13.98
2023-01-26T20:36:44.274Z,15.25
2023-01-26T20:39:32.480Z,13.27
2023-01-26T20:42:20.890Z,13.07
2023-01-26T20:45:09.825Z,12.57
2023-01-26T20:47:58.189Z,12.70
2023-01-26T20:50:47.715Z,11.88
2023-01-26T20:53:35.913Z,12.82
2023-01-26T20:56:24.592Z,14.25
2023-01-26T20:59:13.275Z,13.30
2023-01-26T21:02:01.493Z,14.18
2023-01-26T21:04:50.031Z,13.63
2023-01-26T21:07:39.631Z,15.00
2023-01-26T21:10:27.920Z,15.35
2023-01-26T21:13:16.200Z,13.73
2023-01-26T21:16:05.869Z,15.18
2023-01-26T21:18:54.716Z,15.35
2023-01-26T21:21:44.948Z,13.77
2023-01-26T21:24:36.114Z,13.73
2023-01-26T21:30:13.672Z,12.68
2023-01-26T21:33:02.046Z,12.55
2023-01-26T21:35:56.834Z,13.52
2023-01-26T21:38:48.029Z,12.60
2023-01-26T21:44:57.018Z,12.70
2023-01-26T21:47:45.214Z,11.63
2023-01-26T21:50:47.382Z,12.98
2023-01-26T21:53:35.566Z,12.50
2023-01-26T21:56:23.762Z,12.18
2023-01-26T21:59:14.891Z,11.90
2023-01-26T22:02:03.069Z,10.80
2023-01-26T22:04:51.892Z,11.40
2023-01-26T22:07:40.086Z,11.57
2023-01-26T22:10:28.222Z,10.38
2023-01-26T22:13:16.392Z,11.68
2023-01-26T22:16:06.655Z,11.77
2023-01-26T22:18:55.125Z,8.23
2023-01-26T22:21:44.117Z,11.10
2023-01-26T22:24:32.349Z,10.20
2023-01-26T22:27:20.553Z,9.90
2023-01-26T22:30:10.692Z,11.02
2023-01-26T22:33:00.688Z,10.02
2023-01-26T22:35:48.865Z,9.70
2023-01-26T22:38:38.299Z,9.90
2023-01-26T22:41:28.638Z,9.18
2023-01-26T22:44:16.897Z,6.87
2023-01-26T22:47:05.276Z,9.23
2023-01-26T22:49:54.812Z,9.85
2023-01-26T22:52:43.440Z,9.40
2023-01-26T22:55:31.600Z,9.05
2023-01-26T22:58:19.937Z,9.60
2023-01-26T23:01:09.887Z,8.77
2023-01-26T23:03:58.771Z,9.27
2023-01-26T23:06:48.294Z,9.52
2023-01-26T23:09:36.492Z,8.57
2023-01-26T23:12:24.710Z,9.80
2023-01-26T23:15:12.889Z,9.23
2023-01-26T23:18:01.018Z,9.25
2023-01-26T23:20:49.225Z,9.40
2023-01-26T23:23:40.312Z,9.05
2023-01-26T23:26:28.548Z,8.10
2023-01-26T23:29:16.701Z,8.50
2023-01-26T23:32:05.072Z,8.85
2023-01-26T23:34:53.298Z,9.02
2023-01-26T23:37:41.477Z,8.85
2023-01-26T23:40:31.015Z,8.55
2023-01-26T23:43:19.853Z,9.25
2023-01-26T23:46:09.161Z,7.80
2023-01-26T23:48:57.338Z,7.97
2023-01-26T23:51:45.547Z,8.40
2023-01-26T23:54:33.710Z,8.07
2023-01-26T23:57:23.224Z,8.20
